createdAt,value
2023-04-18T00:00:30.816Z,454.00
2023-04-18T00:01:30.822Z,454.00
2023-04-18T00:02:30.929Z,455.00
2023-04-18T00:03:30.994Z,455.00
2023-04-18T00:04:30.939Z,455.00
2023-04-18T00:05:30.934Z,453.00
2023-04-18T00:06:30.950Z,454.00
2023-04-18T00:07:30.975Z,455.00
2023-04-18T00:08:31.027Z,456.00
2023-04-18T00:09:31.128Z,453.00
2023-04-18T00:10:31.099Z,453.00
2023-04-18T00:11:31.143Z,452.00
2023-04-18T00:12:31.150Z,453.00
2023-04-18T00:13:31.255Z,454.00
2023-04-18T00:14:31.265Z,454.00
2023-04-18T00:15:31.242Z,457.00
2023-04-18T00:16:31.318Z,455.00
2023-04-18T00:17:31.325Z,454.00
2023-04-18T00:18:31.374Z,454.00
2023-04-18T00:19:31.437Z,456.00
2023-04-18T00:20:31.429Z,455.00
2023-04-18T00:21:31.596Z,458.00
2023-04-18T00:22:31.495Z,458.00
2023-04-18T00:23:31.537Z,457.00
2023-04-18T00:24:31.626Z,457.00
2023-04-18T00:25:31.613Z,458.00
2023-04-18T00:26:31.624Z,458.00
2023-04-18T00:27:31.720Z,459.00
2023-04-18T00:28:31.718Z,459.00
2023-04-18T00:29:31.758Z,459.00
2023-04-18T00:30:31.822Z,457.00
2023-04-18T00:31:31.853Z,457.00
2023-04-18T00:32:31.880Z,457.00
2023-04-18T00:33:31.893Z,457.00
2023-04-18T00:34:31.933Z,455.00
2023-04-18T00:35:31.970Z,454.00
2023-04-18T00:36:32.021Z,453.00
2023-04-18T00:37:32.013Z,453.00
2023-04-18T00:38:32.062Z,453.00
2023-04-18T00:39:32.108Z,453.00
2023-04-18T00:40:32.127Z,452.00
2023-04-18T00:41:32.161Z,453.00
2023-04-18T00:42:32.243Z,454.00
2023-04-18T00:43:32.254Z,452.00
2023-04-18T00:44:32.293Z,454.00
2023-04-18T00:45:32.301Z,455.00
2023-04-18T00:46:32.325Z,454.00
2023-04-18T00:47:32.351Z,455.00
2023-04-18T00:48:32.404Z,455.00
2023-04-18T00:49:32.435Z,454.00
2023-04-18T00:50:32.485Z,455.00
2023-04-18T00:51:32.498Z,455.00
2023-04-18T00:52:32.556Z,455.00
2023-04-18T00:53:32.547Z,455.00
2023-04-18T00:54:32.615Z,457.00
2023-04-18T00:55:32.647Z,459.00
2023-04-18T00:56:32.684Z,458.00
2023-04-18T00:57:32.713Z,458.00
2023-04-18T00:58:32.753Z,459.00
2023-04-18T00:59:32.768Z,460.00
2023-04-18T01:00:32.810Z,462.00
2023-04-18T01:01:32.863Z,460.00
2023-04-18T01:02:33.000Z,460.00
2023-04-18T01:03:33.105Z,462.00
2023-04-18T01:04:33.099Z,463.00
2023-04-18T01:05:32.953Z,462.00
2023-04-18T01:06:32.995Z,462.00
2023-04-18T01:07:33.012Z,461.00
2023-04-18T01:08:33.045Z,461.00
2023-04-18T01:09:33.129Z,461.00
2023-04-18T01:10:33.125Z,462.00
2023-04-18T01:11:33.167Z,463.00
2023-04-18T01:12:33.163Z,463.00
2023-04-18T01:13:33.219Z,463.00
2023-04-18T01:14:33.246Z,463.00
2023-04-18T01:15:33.313Z,463.00
2023-04-18T01:16:33.328Z,463.00
2023-04-18T01:17:33.365Z,463.00
2023-04-18T01:18:33.358Z,460.00
2023-04-18T01:19:33.378Z,461.00
2023-04-18T01:20:33.453Z,461.00
2023-04-18T01:21:33.465Z,461.00
2023-04-18T01:22:33.513Z,460.00
2023-04-18T01:23:33.526Z,457.00
2023-04-18T01:24:33.576Z,455.00
2023-04-18T01:25:33.584Z,456.00
2023-04-18T01:26:33.647Z,458.00
2023-04-18T01:27:33.688Z,458.00
2023-04-18T01:28:33.793Z,457.00
2023-04-18T01:29:33.756Z,460.00
2023-04-18T01:30:33.782Z,457.00
2023-04-18T01:31:33.821Z,454.00
2023-04-18T01:32:33.859Z,453.00
2023-04-18T01:33:33.891Z,454.00
2023-04-18T01:34:33.933Z,455.00
2023-04-18T01:35:33.952Z,454.00
2023-04-18T01:36:34.037Z,454.00
2023-04-18T01:37:34.045Z,453.00
2023-04-18T01:38:34.060Z,453.00
2023-04-18T01:39:34.093Z,452.00
2023-04-18T01:40:34.107Z,455.00
2023-04-18T01:41:34.159Z,453.00
2023-04-18T01:42:34.208Z,452.00
2023-04-18T01:43:34.228Z,453.00
2023-04-18T01:44:34.268Z,452.00
2023-04-18T01:45:34.312Z,453.00
2023-04-18T01:46:34.391Z,454.00
2023-04-18T01:47:34.424Z,452.00
2023-04-18T01:48:34.416Z,453.00
2023-04-18T01:49:34.440Z,456.00
2023-04-18T01:50:34.484Z,456.00
2023-04-18T01:51:34.496Z,456.00
2023-04-18T01:52:34.539Z,458.00
2023-04-18T01:53:34.567Z,459.00
2023-04-18T01:54:34.584Z,458.00
2023-04-18T01:55:34.613Z,455.00
2023-04-18T01:56:34.664Z,455.00
2023-04-18T01:57:34.691Z,454.00
2023-04-18T01:58:34.746Z,453.00
2023-04-18T01:59:34.785Z,454.00
2023-04-18T02:00:34.875Z,454.00
2023-04-18T02:01:34.863Z,454.00
2023-04-18T02:02:35.047Z,453.00
2023-04-18T02:03:35.133Z,452.00
2023-04-18T02:04:35.016Z,453.00
2023-04-18T02:05:35.047Z,455.00
2023-04-18T02:06:35.083Z,456.00
2023-04-18T02:07:35.115Z,456.00
2023-04-18T02:08:35.182Z,455.00
2023-04-18T02:09:35.267Z,453.00
2023-04-18T02:10:35.267Z,454.00
2023-04-18T02:11:35.306Z,455.00
2023-04-18T02:12:35.376Z,456.00
2023-04-18T02:13:35.422Z,456.00
2023-04-18T02:14:35.501Z,456.00
2023-04-18T02:15:35.523Z,459.00
2023-04-18T02:16:35.632Z,457.00
2023-04-18T02:17:35.673Z,457.00
2023-04-18T02:18:35.667Z,456.00
2023-04-18T02:19:35.750Z,458.00
2023-04-18T02:20:35.749Z,461.00
2023-04-18T02:21:35.793Z,461.00
2023-04-18T02:22:35.850Z,462.00
2023-04-18T02:23:35.924Z,459.00
2023-04-18T02:24:35.984Z,460.00
2023-04-18T02:25:36.025Z,459.00
2023-04-18T02:26:36.065Z,461.00
2023-04-18T02:27:36.108Z,462.00
2023-04-18T02:28:36.173Z,462.00
2023-04-18T02:29:36.206Z,460.00
2023-04-18T02:30:36.255Z,458.00
2023-04-18T02:31:36.327Z,458.00
2023-04-18T02:32:36.373Z,459.00
2023-04-18T02:33:36.384Z,460.00
2023-04-18T02:34:36.461Z,457.00
2023-04-18T02:35:36.517Z,453.00
2023-04-18T02:36:36.566Z,455.00
2023-04-18T02:37:36.661Z,457.00
2023-04-18T02:38:36.685Z,458.00
2023-04-18T02:39:36.726Z,458.00
2023-04-18T02:40:36.775Z,459.00
2023-04-18T02:41:36.794Z,458.00
2023-04-18T02:42:36.879Z,459.00
2023-04-18T02:43:36.916Z,460.00
2023-04-18T02:44:36.985Z,459.00
2023-04-18T02:45:37.036Z,456.00
2023-04-18T02:46:37.095Z,454.00
2023-04-18T02:47:47.057Z,454.00
2023-04-18T02:48:38.124Z,455.00
2023-04-18T02:49:37.107Z,455.00
2023-04-18T02:50:37.116Z,458.00
2023-04-18T02:51:37.112Z,460.00
2023-04-18T02:52:37.128Z,459.00
2023-04-18T02:53:37.165Z,459.00
2023-04-18T02:54:37.101Z,458.00
2023-04-18T02:55:37.097Z,458.00
2023-04-18T02:56:37.038Z,457.00
2023-04-18T02:57:37.104Z,456.00
2023-04-18T02:58:37.160Z,456.00
2023-04-18T02:59:37.239Z,457.00
2023-04-18T03:00:37.304Z,457.00
2023-04-18T03:01:37.454Z,456.00
2023-04-18T03:02:37.475Z,456.00
2023-04-18T03:03:37.456Z,454.00
2023-04-18T03:04:37.492Z,455.00
2023-04-18T03:05:37.577Z,454.00
2023-04-18T03:06:37.609Z,451.00
2023-04-18T03:07:37.653Z,452.00
2023-04-18T03:08:37.716Z,452.00
2023-04-18T03:09:37.883Z,451.00
2023-04-18T03:10:37.859Z,455.00
2023-04-18T03:11:37.889Z,457.00
2023-04-18T03:12:37.989Z,460.00
2023-04-18T03:13:38.010Z,463.00
2023-04-18T03:14:38.082Z,463.00
2023-04-18T03:15:38.157Z,465.00
2023-04-18T03:16:38.211Z,466.00
2023-04-18T03:17:38.309Z,465.00
2023-04-18T03:18:38.351Z,462.00
2023-04-18T03:19:38.425Z,460.00
2023-04-18T03:20:38.495Z,459.00
2023-04-18T03:21:38.564Z,460.00
2023-04-18T03:22:38.609Z,459.00
2023-04-18T03:23:38.651Z,460.00
2023-04-18T03:24:38.763Z,460.00
2023-04-18T03:25:38.793Z,458.00
2023-04-18T03:26:38.842Z,458.00
2023-04-18T03:27:38.912Z,459.00
2023-04-18T03:28:38.976Z,461.00
2023-04-18T03:29:39.063Z,460.00
2023-04-18T03:30:39.092Z,464.00
2023-04-18T03:31:39.218Z,463.00
2023-04-18T03:32:39.282Z,464.00
2023-04-18T03:33:39.294Z,464.00
2023-04-18T03:34:39.355Z,461.00
2023-04-18T03:35:39.384Z,459.00
2023-04-18T03:36:39.449Z,459.00
2023-04-18T03:37:39.499Z,460.00
2023-04-18T03:38:39.579Z,459.00
2023-04-18T03:39:39.582Z,459.00
2023-04-18T03:40:39.648Z,460.00
2023-04-18T03:41:39.700Z,460.00
2023-04-18T03:42:39.796Z,460.00
2023-04-18T03:43:39.812Z,458.00
2023-04-18T03:44:39.832Z,460.00
2023-04-18T03:45:39.866Z,461.00
2023-04-18T03:46:39.985Z,462.00
2023-04-18T03:47:40.047Z,462.00
2023-04-18T03:48:40.114Z,462.00
2023-04-18T03:49:40.159Z,462.00
2023-04-18T03:50:40.269Z,465.00
2023-04-18T03:51:40.294Z,467.00
2023-04-18T03:52:40.389Z,465.00
2023-04-18T03:53:40.460Z,465.00
2023-04-18T03:54:40.523Z,463.00
2023-04-18T03:55:40.573Z,464.00
2023-04-18T03:56:40.582Z,464.00
2023-04-18T03:57:41.394Z,466.00
2023-04-18T03:58:40.690Z,466.00
2023-04-18T03:59:40.706Z,466.00
2023-04-18T04:00:40.764Z,466.00
2023-04-18T04:01:40.862Z,466.00
2023-04-18T04:02:41.047Z,464.00
2023-04-18T04:03:41.134Z,460.00
2023-04-18T04:04:41.094Z,458.00
2023-04-18T04:05:40.963Z,459.00
2023-04-18T04:06:41.003Z,460.00
2023-04-18T04:07:41.009Z,460.00
2023-04-18T04:08:41.019Z,458.00
2023-04-18T04:09:41.036Z,459.00
2023-04-18T04:10:41.072Z,459.00
2023-04-18T04:11:41.106Z,460.00
2023-04-18T04:12:41.110Z,459.00
2023-04-18T04:13:41.176Z,458.00
2023-04-18T04:14:41.285Z,457.00
2023-04-18T04:15:41.318Z,455.00
2023-04-18T04:16:41.405Z,452.00
2023-04-18T04:17:41.369Z,454.00
2023-04-18T04:18:41.393Z,456.00
2023-04-18T04:19:41.406Z,455.00
2023-04-18T04:20:41.413Z,458.00
2023-04-18T04:21:41.423Z,458.00
2023-04-18T04:22:41.509Z,461.00
2023-04-18T04:23:41.572Z,460.00
2023-04-18T04:24:41.608Z,461.00
2023-04-18T04:25:41.586Z,462.00
2023-04-18T04:26:41.570Z,460.00
2023-04-18T04:27:41.601Z,461.00
2023-04-18T04:28:41.560Z,459.00
2023-04-18T04:29:41.641Z,455.00
2023-04-18T04:30:41.693Z,457.00
2023-04-18T04:31:41.660Z,456.00
2023-04-18T04:32:41.652Z,454.00
2023-04-18T04:33:41.650Z,454.00
2023-04-18T04:34:41.695Z,457.00
2023-04-18T04:35:41.694Z,460.00
2023-04-18T04:36:41.729Z,460.00
2023-04-18T04:37:41.732Z,461.00
2023-04-18T04:38:41.723Z,462.00
2023-04-18T04:39:41.715Z,464.00
2023-04-18T04:40:41.694Z,462.00
2023-04-18T04:41:41.753Z,460.00
2023-04-18T04:42:41.867Z,459.00
2023-04-18T04:43:41.879Z,459.00
2023-04-18T04:44:41.919Z,457.00
2023-04-18T04:45:41.940Z,454.00
2023-04-18T04:46:41.852Z,452.00
2023-04-18T04:47:41.884Z,453.00
2023-04-18T04:48:41.937Z,452.00
2023-04-18T04:49:41.981Z,454.00
2023-04-18T04:50:41.988Z,456.00
2023-04-18T04:51:42.032Z,457.00
2023-04-18T04:52:42.095Z,458.00
2023-04-18T04:53:42.172Z,458.00
2023-04-18T04:54:42.208Z,460.00
2023-04-18T04:55:42.256Z,459.00
2023-04-18T04:56:42.328Z,459.00
2023-04-18T04:57:42.394Z,460.00
2023-04-18T04:58:42.456Z,460.00
2023-04-18T04:59:42.504Z,460.00
2023-04-18T05:00:42.558Z,459.00
2023-04-18T05:01:42.631Z,456.00
2023-04-18T05:02:42.805Z,455.00
2023-04-18T05:03:42.945Z,457.00
2023-04-18T05:04:42.944Z,456.00
2023-04-18T05:05:42.826Z,459.00
2023-04-18T05:06:42.901Z,460.00
2023-04-18T05:07:42.963Z,461.00
2023-04-18T05:08:43.007Z,464.00
2023-04-18T05:09:43.105Z,463.00
2023-04-18T05:10:43.134Z,462.00
2023-04-18T05:11:43.166Z,460.00
2023-04-18T05:12:43.274Z,459.00
2023-04-18T05:13:43.305Z,461.00
2023-04-18T05:14:43.400Z,463.00
2023-04-18T05:15:43.453Z,464.00
2023-04-18T05:16:43.487Z,466.00
2023-04-18T05:17:43.566Z,463.00
2023-04-18T05:18:43.578Z,465.00
2023-04-18T05:19:43.635Z,465.00
2023-04-18T05:20:43.678Z,469.00
2023-04-18T05:21:43.712Z,471.00
2023-04-18T05:22:43.751Z,472.00
2023-04-18T05:23:43.777Z,472.00
2023-04-18T05:24:43.861Z,467.00
2023-04-18T05:25:43.895Z,469.00
2023-04-18T05:26:43.891Z,469.00
2023-04-18T05:27:43.961Z,468.00
2023-04-18T05:28:44.068Z,465.00
2023-04-18T05:29:44.113Z,467.00
2023-04-18T05:30:44.088Z,466.00
2023-04-18T05:31:44.093Z,464.00
2023-04-18T05:32:44.208Z,463.00
2023-04-18T05:33:44.224Z,464.00
2023-04-18T05:34:44.241Z,463.00
2023-04-18T05:35:44.274Z,462.00
2023-04-18T05:36:44.273Z,459.00
2023-04-18T05:37:44.371Z,534.00
2023-04-18T05:38:44.385Z,498.00
2023-04-18T05:39:44.397Z,511.00
2023-04-18T05:40:44.431Z,507.00
2023-04-18T05:41:44.442Z,509.00
2023-04-18T05:42:44.484Z,538.00
2023-04-18T05:43:48.396Z,545.00
2023-04-18T05:44:45.487Z,551.00
2023-04-18T05:45:44.480Z,578.00
2023-04-18T05:46:44.461Z,576.00
2023-04-18T05:47:44.497Z,587.00
2023-04-18T05:48:44.445Z,592.00
2023-04-18T05:49:44.428Z,591.00
2023-04-18T05:50:44.407Z,589.00
2023-04-18T05:51:44.416Z,596.00
2023-04-18T05:52:44.418Z,600.00
2023-04-18T05:53:44.441Z,610.00
2023-04-18T05:54:44.541Z,625.00
2023-04-18T05:55:44.562Z,626.00
2023-04-18T05:56:44.651Z,632.00
2023-04-18T05:57:44.703Z,639.00
2023-04-18T05:58:44.735Z,643.00
2023-04-18T05:59:44.827Z,644.00
2023-04-18T06:00:44.850Z,646.00
2023-04-18T06:01:44.896Z,644.00
2023-04-18T06:02:45.103Z,639.00
2023-04-18T06:03:45.312Z,635.00
2023-04-18T06:04:45.473Z,629.00
2023-04-18T06:05:45.348Z,622.00
2023-04-18T06:06:45.197Z,617.00
2023-04-18T06:07:45.233Z,614.00
2023-04-18T06:08:45.248Z,607.00
2023-04-18T06:09:45.275Z,605.00
2023-04-18T06:10:45.305Z,601.00
2023-04-18T06:11:45.367Z,599.00
2023-04-18T06:12:45.324Z,595.00
2023-04-18T06:13:45.313Z,593.00
2023-04-18T06:14:45.308Z,592.00
2023-04-18T06:15:45.438Z,590.00
2023-04-18T06:16:45.327Z,588.00
2023-04-18T06:17:45.378Z,581.00
2023-04-18T06:18:45.390Z,581.00
2023-04-18T06:19:45.342Z,578.00
2023-04-18T06:20:45.410Z,575.00
2023-04-18T06:21:45.350Z,571.00
2023-04-18T06:22:45.403Z,568.00
2023-04-18T06:23:45.390Z,564.00
2023-04-18T06:24:45.399Z,561.00
2023-04-18T06:25:45.407Z,557.00
2023-04-18T06:26:45.398Z,553.00
2023-04-18T06:27:45.438Z,549.00
2023-04-18T06:28:45.434Z,547.00
2023-04-18T06:29:45.408Z,545.00
2023-04-18T06:30:45.462Z,543.00
2023-04-18T06:31:45.549Z,538.00
2023-04-18T06:32:45.488Z,536.00
2023-04-18T06:33:45.488Z,537.00
2023-04-18T06:34:45.458Z,535.00
2023-04-18T06:35:45.511Z,532.00
2023-04-18T06:36:45.484Z,532.00
2023-04-18T06:37:45.510Z,530.00
2023-04-18T06:38:45.513Z,530.00
2023-04-18T06:39:45.540Z,531.00
2023-04-18T06:40:45.580Z,532.00
2023-04-18T06:41:45.533Z,532.00
2023-04-18T06:42:45.543Z,528.00
2023-04-18T06:43:59.680Z,527.00
2023-04-18T06:44:46.611Z,524.00
2023-04-18T06:45:45.672Z,521.00
2023-04-18T06:46:45.543Z,517.00
2023-04-18T06:47:45.588Z,520.00
2023-04-18T06:48:45.660Z,516.00
2023-04-18T06:49:45.574Z,516.00
2023-04-18T06:50:45.524Z,515.00
2023-04-18T06:51:45.526Z,511.00
2023-04-18T06:52:45.510Z,510.00
2023-04-18T06:53:45.489Z,510.00
2023-04-18T06:54:45.478Z,509.00
2023-04-18T06:55:45.502Z,510.00
2023-04-18T06:56:45.460Z,509.00
2023-04-18T06:57:45.447Z,509.00
2023-04-18T06:58:45.465Z,507.00
2023-04-18T06:59:45.473Z,508.00
2023-04-18T07:00:45.487Z,507.00
2023-04-18T07:01:45.429Z,506.00
2023-04-18T07:02:45.597Z,508.00
2023-04-18T07:03:45.541Z,509.00
2023-04-18T07:04:45.582Z,508.00
2023-04-18T07:05:45.691Z,508.00
2023-04-18T07:06:45.411Z,506.00
2023-04-18T07:07:45.374Z,506.00
2023-04-18T07:08:45.380Z,506.00
2023-04-18T07:09:45.396Z,505.00
2023-04-18T07:10:45.398Z,506.00
2023-04-18T07:11:45.374Z,504.00
2023-04-18T07:12:45.360Z,503.00
2023-04-18T07:13:45.366Z,504.00
2023-04-18T07:14:45.351Z,504.00
2023-04-18T07:15:45.361Z,504.00
2023-04-18T07:16:45.342Z,504.00
2023-04-18T07:17:45.343Z,503.00
2023-04-18T07:18:45.335Z,504.00
2023-04-18T07:19:45.312Z,504.00
2023-04-18T07:20:45.339Z,502.00
2023-04-18T07:21:45.340Z,504.00
2023-04-18T07:22:45.333Z,503.00
2023-04-18T07:23:45.305Z,502.00
2023-04-18T07:24:45.285Z,502.00
2023-04-18T07:25:45.263Z,500.00
2023-04-18T07:26:45.287Z,497.00
2023-04-18T07:27:45.251Z,498.00
2023-04-18T07:28:45.250Z,498.00
2023-04-18T07:29:45.257Z,497.00
2023-04-18T07:30:45.288Z,497.00
2023-04-18T07:31:45.219Z,497.00
2023-04-18T07:32:45.233Z,497.00
2023-04-18T07:33:45.369Z,498.00
2023-04-18T07:34:45.331Z,498.00
2023-04-18T07:35:45.353Z,499.00
2023-04-18T07:36:45.408Z,500.00
2023-04-18T07:37:45.458Z,500.00
2023-04-18T07:38:45.503Z,502.00
2023-04-18T07:39:45.551Z,503.00
2023-04-18T07:40:45.716Z,503.00
2023-04-18T07:41:45.688Z,504.00
2023-04-18T07:42:45.708Z,508.00
2023-04-18T07:43:45.789Z,563.00
2023-04-18T07:44:45.858Z,688.00
2023-04-18T07:45:46.223Z,782.00
2023-04-18T07:46:45.924Z,912.00
2023-04-18T07:47:45.930Z,934.00
2023-04-18T07:48:45.904Z,832.00
2023-04-18T07:49:45.927Z,853.00
2023-04-18T07:50:45.953Z,894.00
2023-04-18T07:51:45.950Z,932.00
2023-04-18T07:52:45.980Z,946.00
2023-04-18T07:53:46.002Z,958.00
2023-04-18T07:54:45.995Z,975.00
2023-04-18T07:55:46.060Z,986.00
2023-04-18T07:56:46.141Z,997.00
2023-04-18T07:57:47.527Z,1018.00
2023-04-18T07:58:46.209Z,1039.00
2023-04-18T07:59:46.264Z,1050.00
2023-04-18T08:00:46.323Z,1065.00
2023-04-18T08:01:46.332Z,1070.00
2023-04-18T08:02:46.529Z,1076.00
2023-04-18T08:03:46.479Z,1078.00
2023-04-18T08:04:46.629Z,1078.00
2023-04-18T08:05:46.506Z,1074.00
2023-04-18T08:06:46.531Z,1081.00
2023-04-18T08:07:46.545Z,1089.00
2023-04-18T08:08:46.611Z,1101.00
2023-04-18T08:09:46.608Z,1125.00
2023-04-18T08:10:46.620Z,1150.00
2023-04-18T08:11:46.621Z,1150.00
2023-04-18T08:12:46.637Z,1153.00
2023-04-18T08:13:46.636Z,1164.00
2023-04-18T08:14:46.690Z,1172.00
2023-04-18T08:15:46.720Z,1187.00
2023-04-18T08:16:46.762Z,1235.00
2023-04-18T08:17:46.736Z,1250.00
2023-04-18T08:18:46.798Z,1244.00
2023-04-18T08:19:46.738Z,1234.00
2023-04-18T08:20:46.776Z,1233.00
2023-04-18T08:21:46.745Z,1236.00
2023-04-18T08:23:02.272Z,1240.00
2023-04-18T08:23:47.789Z,1246.00
2023-04-18T08:25:01.383Z,1253.00
2023-04-18T08:25:47.800Z,1256.00
2023-04-18T08:26:46.773Z,1254.00
2023-04-18T08:27:46.733Z,1260.00
2023-04-18T08:28:46.859Z,1266.00
2023-04-18T08:29:46.718Z,1266.00
2023-04-18T08:30:46.749Z,1273.00
2023-04-18T08:31:46.765Z,1298.00
2023-04-18T08:32:46.865Z,1317.00
2023-04-18T08:33:46.730Z,1318.00
2023-04-18T08:34:46.730Z,1320.00
2023-04-18T08:35:46.727Z,1324.00
2023-04-18T08:36:47.200Z,1326.00
2023-04-18T08:37:46.735Z,1314.00
2023-04-18T08:38:46.802Z,1238.00
2023-04-18T08:39:46.836Z,1229.00
2023-04-18T08:40:47.024Z,1214.00
2023-04-18T08:41:47.211Z,1130.00
2023-04-18T08:42:47.051Z,1120.00
2023-04-18T08:43:47.090Z,1119.00
2023-04-18T08:44:47.250Z,1114.00
2023-04-18T08:45:47.144Z,1111.00
2023-04-18T08:46:47.228Z,1103.00
2023-04-18T08:47:47.182Z,1094.00
2023-04-18T08:48:47.125Z,1074.00
2023-04-18T08:49:47.157Z,1058.00
2023-04-18T08:50:47.143Z,1045.00
2023-04-18T08:51:47.217Z,1037.00
2023-04-18T08:52:47.144Z,1026.00
2023-04-18T08:53:47.126Z,1010.00
2023-04-18T08:54:47.142Z,1007.00
2023-04-18T08:55:47.124Z,1002.00
2023-04-18T08:56:47.176Z,988.00
2023-04-18T08:57:47.191Z,928.00
2023-04-18T08:58:47.200Z,921.00
2023-04-18T08:59:48.926Z,918.00
2023-04-18T09:00:47.193Z,914.00
2023-04-18T09:01:47.227Z,892.00
2023-04-18T09:02:47.445Z,873.00
2023-04-18T09:03:47.188Z,862.00
2023-04-18T09:04:47.187Z,854.00
2023-04-18T09:05:47.160Z,840.00
2023-04-18T09:06:47.180Z,821.00
2023-04-18T09:07:47.138Z,803.00
2023-04-18T09:08:47.142Z,791.00
2023-04-18T09:09:47.128Z,779.00
2023-04-18T09:10:47.131Z,770.00
2023-04-18T09:11:47.134Z,766.00
2023-04-18T09:12:47.410Z,764.00
2023-04-18T09:13:47.112Z,759.00
2023-04-18T09:14:47.152Z,751.00
2023-04-18T09:15:47.109Z,745.00
2023-04-18T09:16:47.200Z,738.00
2023-04-18T09:17:47.159Z,728.00
2023-04-18T09:18:47.106Z,720.00
2023-04-18T09:19:47.083Z,715.00
2023-04-18T09:20:47.057Z,712.00
2023-04-18T09:21:47.078Z,712.00
2023-04-18T09:22:47.058Z,709.00
2023-04-18T09:23:47.057Z,703.00
2023-04-18T09:24:47.046Z,695.00
2023-04-18T09:25:47.083Z,691.00
2023-04-18T09:26:47.223Z,686.00
2023-04-18T09:27:47.057Z,682.00
2023-04-18T09:28:47.011Z,675.00
2023-04-18T09:29:47.205Z,672.00
2023-04-18T09:30:47.012Z,666.00
2023-04-18T09:31:47.236Z,663.00
2023-04-18T09:32:47.052Z,659.00
2023-04-18T09:33:46.979Z,659.00
2023-04-18T09:34:46.985Z,659.00
2023-04-18T09:35:47.025Z,656.00
2023-04-18T09:36:47.278Z,654.00
2023-04-18T09:37:46.971Z,653.00
2023-04-18T09:38:46.949Z,653.00
2023-04-18T09:39:46.914Z,651.00
2023-04-18T09:40:46.972Z,651.00
2023-04-18T09:41:47.237Z,653.00
2023-04-18T09:42:46.932Z,744.00
2023-04-18T09:43:46.901Z,925.00
2023-04-18T09:44:46.926Z,739.00
2023-04-18T09:45:46.936Z,711.00
2023-04-18T09:46:47.666Z,715.00
2023-04-18T09:47:46.929Z,721.00
2023-04-18T09:48:46.890Z,759.00
2023-04-18T09:49:46.865Z,830.00
2023-04-18T09:50:46.910Z,835.00
2023-04-18T09:51:47.278Z,846.00
2023-04-18T09:52:46.883Z,936.00
2023-04-18T09:53:46.885Z,993.00
2023-04-18T09:54:48.216Z,1012.00
2023-04-18T09:55:46.813Z,1022.00
2023-04-18T09:56:46.830Z,1027.00
2023-04-18T09:57:46.829Z,1100.00
2023-04-18T09:58:46.835Z,1089.00
2023-04-18T09:59:46.812Z,1101.00
2023-04-18T10:00:47.034Z,1107.00
2023-04-18T10:01:46.865Z,1114.00
2023-04-18T10:02:46.834Z,1121.00
2023-04-18T10:03:46.898Z,1122.00
2023-04-18T10:04:46.884Z,1130.00
2023-04-18T10:05:46.869Z,1136.00
2023-04-18T10:06:46.798Z,1167.00
2023-04-18T10:07:46.762Z,1166.00
2023-04-18T10:08:46.766Z,1187.00
2023-04-18T10:09:46.745Z,1185.00
2023-04-18T10:10:46.779Z,1182.00
2023-04-18T10:11:46.736Z,1189.00
2023-04-18T10:12:46.749Z,1189.00
2023-04-18T10:13:46.752Z,1196.00
2023-04-18T10:14:46.815Z,1202.00
2023-04-18T10:15:46.839Z,1201.00
2023-04-18T10:16:48.456Z,1198.00
2023-04-18T10:18:00.630Z,1196.00
2023-04-18T10:18:47.860Z,1198.00
2023-04-18T10:19:46.865Z,1201.00
2023-04-18T10:20:46.858Z,1205.00
2023-04-18T10:21:46.842Z,1259.00
2023-04-18T10:22:46.849Z,1273.00
2023-04-18T10:23:46.830Z,1256.00
2023-04-18T10:24:46.815Z,1250.00
2023-04-18T10:25:46.809Z,1256.00
2023-04-18T10:26:46.818Z,1265.00
2023-04-18T10:27:46.799Z,1276.00
2023-04-18T10:28:46.801Z,1282.00
2023-04-18T10:29:46.779Z,1288.00
2023-04-18T10:30:46.786Z,1289.00
2023-04-18T10:31:46.851Z,1294.00
2023-04-18T10:32:47.037Z,1305.00
2023-04-18T10:33:52.780Z,1296.00
2023-04-18T10:34:47.763Z,1292.00
2023-04-18T10:35:46.747Z,1295.00
2023-04-18T10:36:47.313Z,1294.00
2023-04-18T10:37:46.769Z,1290.00
2023-04-18T10:38:46.715Z,1279.00
2023-04-18T10:39:46.722Z,1215.00
2023-04-18T10:40:46.730Z,1220.00
2023-04-18T10:41:47.916Z,1213.00
2023-04-18T10:42:46.710Z,1213.00
2023-04-18T10:43:46.695Z,1206.00
2023-04-18T10:44:46.709Z,1219.00
2023-04-18T10:45:46.697Z,1248.00
2023-04-18T10:46:46.700Z,1265.00
2023-04-18T10:47:46.881Z,1275.00
2023-04-18T10:48:46.815Z,1281.00
2023-04-18T10:49:46.651Z,1282.00
2023-04-18T10:50:46.693Z,1284.00
2023-04-18T10:51:46.713Z,1289.00
2023-04-18T10:52:46.670Z,1296.00
2023-04-18T10:53:46.673Z,1295.00
2023-04-18T10:54:46.672Z,1286.00
2023-04-18T10:55:46.658Z,1264.00
2023-04-18T10:56:46.660Z,1245.00
2023-04-18T10:57:46.668Z,1187.00
2023-04-18T10:58:46.600Z,1176.00
2023-04-18T10:59:46.603Z,1161.00
2023-04-18T11:00:46.677Z,1137.00
2023-04-18T11:01:46.678Z,1101.00
2023-04-18T11:02:46.849Z,1072.00
2023-04-18T11:03:46.780Z,1049.00
2023-04-18T11:04:46.711Z,1026.00
2023-04-18T11:05:46.716Z,1004.00
2023-04-18T11:06:46.764Z,991.00
2023-04-18T11:07:46.746Z,971.00
2023-04-18T11:08:46.783Z,960.00
2023-04-18T11:09:46.830Z,849.00
2023-04-18T11:10:46.821Z,846.00
2023-04-18T11:11:46.874Z,887.00
2023-04-18T11:12:46.907Z,886.00
2023-04-18T11:13:46.964Z,873.00
2023-04-18T11:14:46.954Z,861.00
2023-04-18T11:15:46.997Z,828.00
2023-04-18T11:16:47.117Z,817.00
2023-04-18T11:17:47.093Z,806.00
2023-04-18T11:18:47.092Z,798.00
2023-04-18T11:19:47.130Z,789.00
2023-04-18T11:20:47.191Z,781.00
2023-04-18T11:21:47.271Z,779.00
2023-04-18T11:22:47.228Z,775.00
2023-04-18T11:23:47.276Z,770.00
2023-04-18T11:24:47.300Z,760.00
2023-04-18T11:25:48.273Z,751.00
2023-04-18T11:26:47.373Z,734.00
2023-04-18T11:27:47.425Z,730.00
2023-04-18T11:28:47.445Z,723.00
2023-04-18T11:29:47.474Z,715.00
2023-04-18T11:30:47.551Z,707.00
2023-04-18T11:31:47.841Z,698.00
2023-04-18T11:32:47.610Z,693.00
2023-04-18T11:33:47.608Z,922.00
2023-04-18T11:34:47.652Z,797.00
2023-04-18T11:35:47.710Z,774.00
2023-04-18T11:36:47.746Z,761.00
2023-04-18T11:37:47.763Z,756.00
2023-04-18T11:38:47.794Z,808.00
2023-04-18T11:39:47.838Z,775.00
2023-04-18T11:40:47.934Z,775.00
2023-04-18T11:41:47.937Z,787.00
2023-04-18T11:42:47.939Z,786.00
2023-04-18T11:43:47.972Z,784.00
2023-04-18T11:44:48.006Z,831.00
2023-04-18T11:45:48.035Z,826.00
2023-04-18T11:46:48.085Z,811.00
2023-04-18T11:47:48.158Z,813.00
2023-04-18T11:48:48.112Z,820.00
2023-04-18T11:49:48.150Z,818.00
2023-04-18T11:50:48.180Z,819.00
2023-04-18T11:51:48.184Z,816.00
2023-04-18T11:52:48.333Z,817.00
2023-04-18T11:53:48.238Z,817.00
2023-04-18T11:54:48.246Z,826.00
2023-04-18T11:55:48.270Z,836.00
2023-04-18T11:56:48.313Z,839.00
2023-04-18T11:57:48.307Z,841.00
2023-04-18T11:58:48.348Z,843.00
2023-04-18T11:59:48.347Z,853.00
2023-04-18T12:00:48.353Z,863.00
2023-04-18T12:01:48.392Z,865.00
2023-04-18T12:02:48.515Z,872.00
2023-04-18T12:03:48.555Z,880.00
2023-04-18T12:04:48.526Z,885.00
2023-04-18T12:05:48.666Z,887.00
2023-04-18T12:06:48.455Z,890.00
2023-04-18T12:07:48.508Z,888.00
2023-04-18T12:08:48.563Z,889.00
2023-04-18T12:09:48.440Z,883.00
2023-04-18T12:10:48.428Z,880.00
2023-04-18T12:11:48.423Z,885.00
2023-04-18T12:12:48.434Z,873.00
2023-04-18T12:13:48.462Z,867.00
2023-04-18T12:14:48.421Z,864.00
2023-04-18T12:15:48.440Z,854.00
2023-04-18T12:16:48.440Z,839.00
2023-04-18T12:17:48.510Z,842.00
2023-04-18T12:18:48.450Z,838.00
2023-04-18T12:19:49.829Z,834.00
2023-04-18T12:20:48.414Z,839.00
2023-04-18T12:21:48.442Z,836.00
2023-04-18T12:22:48.469Z,835.00
2023-04-18T12:23:48.461Z,831.00
2023-04-18T12:24:48.528Z,825.00